Página principal
METAR-TAF:

METAR-TAF

Aeroportos :

Chengdu, China

Aeroporto Internacional de Chengdu Shuangliu

latitude: 30-40N, longitude: 104-01E, altura: 508 m

Observação actual do tempo

O boletim foi feito há 35 minutos, às 13:00 UTC
Vento 2 kt com direcção variável
Temperatura 11°C
Humidade 76%
Pressão 1027 hPa
Visibilidade 10 km ou mais
Nuvens dispersasa uma altura de 4000 ft

METAR: ZUUU 251300Z VRB01MPS 9999 SCT040 11/07 Q1027 NOSIG

Hora: 21:35 (13:35 UTC)

Previsão

O boletim foi feito há 5 horas e 31 minutos, às 08:04 UTC
Previsão válida de 25 às 12 UTC a 26 às 12 UTC
Vento 6 kt de sudoeste
Visibilidade: 6000 m
Nuvens dispersasa uma altura de 5000 ft

TAF: ZUUU 250804Z 2512/2612 22003MPS 6000 SCT050 TX20/2607Z TN09/2523Z

Observações e previsões do tempo de mais de 4000 aeroportos (mensagens METAR e TAF).

As estações disponíveis são os pontos amarelos e vermelhos sobre o mapa.

Mova o rato sobre o mapa para ver o nome da estação.

Depois clique no ponto para visualizar as observações e previsões meteorológicas.

Para alterar o mapa : clique nos botões verdes com uma cruz preta para aumentar o zoom; no botão verde com uma pitada de zoom; ou nas setas verdes para mapas adjacentes.


METAR-TAF: